Weather at Rijeka Airport

Public forecast

Using degrees Celsius for public forecast. Weather courtesy of forecast.io.

Current aviation weather report (METAR) for Rijeka Airport

Retrieved 2022/06/24 23:00 UTC (13 minutes ago):

LDRI 242300Z 15007KT CAVOK 24/17 Q1011

Aviation forecast (TAF) for Rijeka Airport

Retrieved 2022/06/24 18:00 UTC (5 hours ago):

TAF LDRI 241725Z 2418/2518 14007KT 9999 FEW040 TX30/2512Z TN22/2503Z PROB30 TEMPO 2500/2503 TS FEW040CB PROB30 TEMPO 2509/2513 TSRA FEW040CB